createdAt,value
2018-03-01T00:01:44.722Z,65.49
2018-03-01T00:04:13.125Z,65.54
2018-03-01T00:06:41.614Z,65.54
2018-03-01T00:09:10.085Z,65.76
2018-03-01T00:11:38.507Z,65.81
2018-03-01T00:14:06.943Z,65.97
2018-03-01T00:16:35.401Z,65.92
2018-03-01T00:19:03.769Z,65.88
2018-03-01T00:21:32.149Z,65.83
2018-03-01T00:24:00.543Z,65.69
2018-03-01T00:26:28.961Z,65.90
2018-03-01T00:28:57.351Z,66.01
2018-03-01T00:31:26.515Z,66.33
2018-03-01T00:33:54.891Z,66.33
2018-03-01T00:36:23.293Z,66.27
2018-03-01T00:38:51.672Z,66.39
2018-03-01T00:41:20.059Z,66.35
2018-03-01T00:43:48.498Z,66.29
2018-03-01T00:46:16.897Z,66.46
2018-03-01T00:48:45.345Z,66.13
2018-03-01T00:51:13.731Z,66.14
2018-03-01T00:53:42.100Z,66.15
2018-03-01T00:56:10.519Z,66.23
2018-03-01T00:58:38.921Z,66.25
2018-03-01T01:01:08.149Z,66.45
2018-03-01T01:03:37.342Z,66.47
2018-03-01T01:06:05.735Z,66.61
2018-03-01T01:08:34.123Z,66.74
2018-03-01T01:11:02.529Z,66.78
2018-03-01T01:13:30.964Z,66.83
2018-03-01T01:15:59.371Z,66.84
2018-03-01T01:18:27.753Z,67.00
2018-03-01T01:20:56.130Z,67.19
2018-03-01T01:23:24.544Z,67.26
2018-03-01T01:25:53.721Z,67.39
2018-03-01T01:28:22.130Z,67.57
2018-03-01T01:30:50.512Z,67.78
2018-03-01T01:33:19.690Z,67.76
2018-03-01T01:35:48.071Z,67.88
2018-03-01T01:38:16.493Z,67.83
2018-03-01T01:40:44.892Z,67.88
2018-03-01T01:43:13.271Z,67.88
2018-03-01T01:45:41.679Z,67.91
2018-03-01T01:48:10.061Z,67.93
2018-03-01T01:50:56.316Z,68.13
2018-03-01T01:53:24.796Z,68.17
2018-03-01T01:55:53.369Z,68.28
2018-03-01T01:58:21.798Z,68.16
2018-03-01T02:00:50.186Z,68.21
2018-03-01T02:03:18.597Z,68.38
2018-03-01T02:05:47.050Z,68.57
2018-03-01T02:10:50.709Z,68.72
2018-03-01T02:13:19.090Z,68.79
2018-03-01T02:15:47.500Z,68.94
2018-03-01T02:18:15.913Z,69.03
2018-03-01T02:20:45.052Z,69.12
2018-03-01T02:23:13.491Z,69.11
2018-03-01T02:25:42.830Z,69.21
2018-03-01T02:28:11.310Z,69.06
2018-03-01T02:30:39.783Z,69.21
2018-03-01T02:33:08.190Z,69.23
2018-03-01T02:35:36.637Z,69.29
2018-03-01T02:38:05.002Z,69.39
2018-03-01T02:40:33.431Z,69.56
2018-03-01T02:43:01.820Z,69.60
2018-03-01T02:45:30.203Z,69.69
2018-03-01T02:47:58.646Z,69.71
2018-03-01T02:50:27.058Z,69.92
2018-03-01T02:52:55.433Z,69.87
2018-03-01T02:55:23.814Z,70.07
2018-03-01T02:57:52.229Z,70.01
2018-03-01T03:00:20.646Z,69.97
2018-03-01T03:02:49.029Z,70.12
2018-03-01T03:05:17.413Z,70.10
2018-03-01T03:07:45.805Z,70.23
2018-03-01T03:10:14.193Z,70.39
2018-03-01T03:12:42.593Z,70.36
2018-03-01T03:15:11.761Z,70.36
2018-03-01T03:17:40.165Z,70.59
2018-03-01T03:20:09.337Z,70.58
2018-03-01T03:22:37.718Z,70.62
2018-03-01T03:25:06.123Z,70.67
2018-03-01T03:27:35.272Z,70.66
2018-03-01T03:30:03.734Z,70.88
2018-03-01T03:32:32.179Z,70.95
2018-03-01T03:35:01.336Z,71.00
2018-03-01T03:37:29.733Z,71.12
2018-03-01T03:39:58.109Z,71.02
2018-03-01T03:42:26.637Z,71.19
2018-03-01T03:44:55.030Z,71.26
2018-03-01T03:47:23.438Z,71.46
2018-03-01T03:49:51.852Z,71.56
2018-03-01T03:52:21.006Z,71.70
2018-03-01T03:54:49.417Z,71.78
2018-03-01T03:57:17.785Z,71.97
2018-03-01T03:59:46.161Z,72.04
2018-03-01T04:02:15.383Z,71.98
2018-03-01T04:04:43.792Z,71.94
2018-03-01T04:07:12.290Z,71.99
2018-03-01T04:09:40.770Z,72.19
2018-03-01T04:12:09.187Z,72.13
2018-03-01T04:14:37.556Z,72.19
2018-03-01T04:17:05.932Z,72.46
2018-03-01T04:19:34.359Z,72.48
2018-03-01T04:22:02.742Z,72.62
2018-03-01T04:24:31.133Z,72.68
2018-03-01T04:26:59.541Z,72.73
2018-03-01T04:29:27.947Z,72.93
2018-03-01T04:31:57.186Z,73.04
2018-03-01T04:34:25.625Z,73.17
2018-03-01T04:36:54.789Z,73.49
2018-03-01T04:39:23.221Z,73.72
2018-03-01T04:41:51.650Z,73.79
2018-03-01T04:44:20.051Z,73.83
2018-03-01T04:46:48.430Z,73.89
2018-03-01T04:49:16.883Z,73.99
2018-03-01T04:51:45.281Z,74.30
2018-03-01T04:54:13.730Z,74.34
2018-03-01T04:56:42.161Z,74.36
2018-03-01T04:59:11.335Z,74.68
2018-03-01T05:01:40.535Z,74.73
2018-03-01T05:04:08.940Z,74.79
2018-03-01T05:06:38.167Z,74.81
2018-03-01T05:09:06.590Z,74.85
2018-03-01T05:11:35.032Z,74.88
2018-03-01T05:14:03.478Z,75.15
2018-03-01T05:16:32.661Z,75.09
2018-03-01T05:19:01.030Z,75.06
2018-03-01T05:21:29.439Z,75.21
2018-03-01T05:23:57.865Z,75.36
2018-03-01T05:26:26.257Z,75.45
2018-03-01T05:28:54.638Z,75.41
2018-03-01T05:31:23.049Z,75.57
2018-03-01T05:33:52.217Z,75.55
2018-03-01T05:36:20.657Z,75.78
2018-03-01T05:38:49.043Z,75.64
2018-03-01T05:41:17.447Z,75.76
2018-03-01T05:43:45.895Z,75.87
2018-03-01T05:46:14.301Z,77.05
2018-03-01T05:48:42.693Z,76.99
2018-03-01T05:51:11.095Z,76.13
2018-03-01T05:53:39.490Z,76.21
2018-03-01T05:56:07.885Z,76.09
2018-03-01T05:58:36.309Z,75.19
2018-03-01T06:01:04.685Z,75.39
2018-03-01T06:03:33.861Z,75.87
2018-03-01T06:06:02.252Z,80.41
2018-03-01T06:08:30.685Z,74.27
2018-03-01T06:10:59.069Z,74.38
2018-03-01T06:13:27.471Z,75.03
2018-03-01T06:15:55.848Z,75.14
2018-03-01T06:18:24.257Z,75.39
2018-03-01T06:20:52.637Z,75.45
2018-03-01T06:23:21.012Z,74.94
2018-03-01T06:25:49.415Z,75.33
2018-03-01T06:28:18.554Z,74.24
2018-03-01T06:30:46.932Z,74.91
2018-03-01T06:33:15.332Z,74.38
2018-03-01T06:35:43.758Z,74.03
2018-03-01T06:38:12.912Z,73.65
2018-03-01T06:40:41.294Z,73.80
2018-03-01T06:43:09.701Z,73.44
2018-03-01T06:45:38.874Z,73.21
2018-03-01T06:48:07.263Z,73.37
2018-03-01T06:50:36.426Z,72.92
2018-03-01T06:53:04.886Z,73.10
2018-03-01T06:55:33.259Z,72.49
2018-03-01T06:58:01.641Z,71.91
2018-03-01T07:00:30.058Z,71.56
2018-03-01T07:02:58.447Z,70.96
2018-03-01T07:05:26.869Z,71.12
2018-03-01T07:07:55.261Z,70.51
2018-03-01T07:10:23.670Z,70.38
2018-03-01T07:12:52.079Z,70.19
2018-03-01T07:15:20.475Z,76.97
2018-03-01T07:17:48.871Z,69.85
2018-03-01T07:20:17.238Z,69.68
2018-03-01T07:22:45.631Z,68.99
2018-03-01T07:25:14.035Z,68.64
2018-03-01T07:27:42.501Z,68.32
2018-03-01T07:30:10.905Z,68.16
2018-03-01T07:32:39.284Z,67.80
2018-03-01T07:35:07.663Z,68.86
2018-03-01T07:37:36.045Z,68.62
2018-03-01T07:40:04.442Z,67.82
2018-03-01T07:42:32.811Z,67.86
2018-03-01T07:45:01.223Z,67.03
2018-03-01T07:47:29.650Z,67.20
2018-03-01T07:49:58.023Z,66.80
2018-03-01T07:52:26.422Z,66.95
2018-03-01T07:54:54.794Z,66.94
2018-03-01T07:57:23.250Z,66.93
2018-03-01T07:59:51.651Z,66.27
2018-03-01T08:02:20.030Z,65.49
2018-03-01T08:04:48.433Z,64.85
2018-03-01T08:07:16.881Z,63.99
2018-03-01T08:09:45.256Z,64.12
2018-03-01T08:12:13.772Z,64.47
2018-03-01T08:14:42.151Z,64.36
2018-03-01T08:17:10.526Z,63.54
2018-03-01T08:19:38.887Z,62.83
2018-03-01T08:22:07.276Z,62.76
2018-03-01T08:24:35.704Z,63.21
2018-03-01T08:27:04.080Z,62.59
2018-03-01T08:29:32.489Z,62.57
2018-03-01T08:32:00.870Z,62.87
2018-03-01T08:34:29.332Z,62.26
2018-03-01T08:36:57.697Z,61.28
2018-03-01T08:39:26.065Z,61.30
2018-03-01T08:41:54.456Z,60.44
2018-03-01T08:44:22.912Z,60.98
2018-03-01T08:46:51.315Z,60.66
2018-03-01T08:49:19.711Z,60.12
2018-03-01T08:51:48.137Z,59.53
2018-03-01T08:54:16.663Z,58.81
2018-03-01T08:56:45.076Z,59.47
2018-03-01T08:59:13.466Z,59.70
2018-03-01T09:01:41.833Z,59.26
2018-03-01T09:04:10.234Z,58.62
2018-03-01T09:06:38.639Z,57.89
2018-03-01T09:09:07.037Z,58.17
2018-03-01T09:11:35.441Z,58.21
2018-03-01T09:14:03.841Z,57.41
2018-03-01T09:16:32.209Z,56.58
2018-03-01T09:19:00.628Z,56.00
2018-03-01T09:21:29.019Z,54.92
2018-03-01T09:23:57.392Z,55.24
2018-03-01T09:26:25.794Z,54.40
2018-03-01T09:28:54.190Z,52.67
2018-03-01T09:31:22.581Z,47.28
2018-03-01T09:33:51.722Z,40.28
2018-03-01T09:36:20.124Z,36.23
2018-03-01T09:38:48.489Z,35.64
2018-03-01T09:41:16.876Z,33.49
2018-03-01T09:43:45.275Z,31.30
2018-03-01T09:46:13.669Z,31.26
2018-03-01T09:48:42.018Z,32.73
2018-03-01T09:51:10.415Z,28.67
2018-03-01T09:53:38.858Z,28.76
2018-03-01T09:56:07.218Z,31.01
2018-03-01T09:58:35.611Z,30.62
2018-03-01T10:01:03.984Z,29.64
2018-03-01T10:03:32.351Z,29.50
2018-03-01T10:06:00.769Z,28.62
2018-03-01T10:08:29.130Z,30.52
2018-03-01T10:10:57.606Z,29.48
2018-03-01T10:13:26.018Z,29.06
2018-03-01T10:15:54.457Z,28.94
2018-03-01T10:18:22.809Z,30.29
2018-03-01T10:20:51.982Z,32.28
2018-03-01T10:23:20.421Z,32.64
2018-03-01T10:25:48.786Z,31.54
2018-03-01T10:28:17.154Z,30.75
2018-03-01T10:30:45.582Z,32.18
2018-03-01T10:33:14.069Z,31.67
2018-03-01T10:35:42.454Z,31.53
2018-03-01T10:38:10.855Z,29.57
2018-03-01T10:40:39.255Z,31.05
2018-03-01T10:43:07.642Z,33.16
2018-03-01T10:45:36.078Z,33.69
2018-03-01T10:48:04.470Z,38.05
2018-03-01T10:50:32.850Z,39.39
2018-03-01T10:53:02.033Z,41.03
2018-03-01T10:55:30.489Z,41.28
2018-03-01T10:57:58.861Z,41.67
2018-03-01T11:00:32.664Z,42.52
2018-03-01T11:03:01.066Z,42.45
2018-03-01T11:05:29.453Z,42.19
2018-03-01T11:07:57.867Z,41.56
2018-03-01T11:10:26.258Z,42.04
2018-03-01T11:12:54.659Z,42.24
2018-03-01T11:15:23.032Z,42.01
2018-03-01T11:17:51.411Z,42.21
2018-03-01T11:20:19.829Z,40.61
2018-03-01T11:22:48.212Z,39.50
2018-03-01T11:25:16.580Z,38.38
2018-03-01T11:27:44.969Z,37.97
2018-03-01T11:30:13.353Z,37.44
2018-03-01T11:32:41.763Z,38.71
2018-03-01T11:35:10.168Z,40.53
2018-03-01T11:37:38.547Z,42.27
2018-03-01T11:40:06.955Z,42.20
2018-03-01T11:42:35.332Z,41.63
2018-03-01T11:45:03.725Z,41.81
2018-03-01T11:47:32.196Z,41.92
2018-03-01T11:50:00.643Z,42.01
2018-03-01T11:52:29.043Z,42.20
2018-03-01T11:54:57.454Z,41.65
2018-03-01T11:57:26.606Z,40.66
2018-03-01T11:59:54.982Z,39.94
2018-03-01T12:02:23.388Z,40.12
2018-03-01T12:04:51.829Z,40.91
2018-03-01T12:07:20.207Z,41.70
2018-03-01T12:09:48.615Z,41.39
2018-03-01T12:12:17.039Z,41.39
2018-03-01T12:14:45.428Z,41.26
2018-03-01T12:17:13.841Z,41.25
2018-03-01T12:19:42.278Z,40.63
2018-03-01T12:22:11.424Z,40.47
2018-03-01T12:24:39.881Z,39.75
2018-03-01T12:27:08.266Z,39.74
2018-03-01T12:29:36.724Z,39.92
2018-03-01T12:32:05.177Z,39.70
2018-03-01T12:34:34.339Z,38.93
2018-03-01T12:37:02.731Z,38.71
2018-03-01T12:39:31.142Z,38.19
2018-03-01T12:42:00.274Z,38.47
2018-03-01T12:44:28.678Z,38.36
2018-03-01T12:46:57.135Z,37.99
2018-03-01T12:49:25.543Z,38.06
2018-03-01T12:51:53.925Z,38.46
2018-03-01T12:54:22.468Z,38.10
2018-03-01T12:56:50.984Z,37.59
2018-03-01T12:59:19.423Z,37.03
2018-03-01T13:01:47.946Z,37.00
2018-03-01T13:04:17.758Z,37.87
2018-03-01T13:06:46.156Z,37.89
2018-03-01T13:09:15.296Z,37.71
2018-03-01T13:11:43.689Z,36.91
2018-03-01T13:14:12.082Z,36.27
2018-03-01T13:16:40.449Z,35.97
2018-03-01T13:19:08.821Z,35.97
2018-03-01T13:21:37.221Z,35.92
2018-03-01T13:24:05.595Z,36.06
2018-03-01T13:26:33.975Z,36.55
2018-03-01T13:29:02.433Z,36.40
2018-03-01T13:31:34.209Z,36.27
2018-03-01T13:37:11.135Z,35.67
2018-03-01T13:39:40.300Z,36.41
2018-03-01T13:42:11.951Z,36.23
2018-03-01T13:44:40.358Z,35.48
2018-03-01T13:47:09.517Z,35.43
2018-03-01T13:49:37.891Z,34.74
2018-03-01T13:52:06.390Z,35.10
2018-03-01T13:54:34.778Z,38.81
2018-03-01T13:57:03.154Z,37.55
2018-03-01T13:59:31.551Z,36.06
2018-03-01T14:01:59.927Z,37.38
2018-03-01T14:04:28.301Z,37.33
2018-03-01T14:10:04.815Z,35.22
2018-03-01T14:12:49.868Z,35.81
2018-03-01T14:15:18.457Z,35.70
2018-03-01T14:21:17.038Z,36.60
2018-03-01T14:23:51.255Z,36.51
2018-03-01T14:26:19.635Z,36.73
2018-03-01T14:28:50.959Z,36.56
2018-03-01T14:31:19.422Z,36.43
2018-03-01T14:33:47.897Z,36.09
2018-03-01T14:36:16.354Z,36.81
2018-03-01T14:38:45.519Z,36.90
2018-03-01T14:41:13.981Z,36.93
2018-03-01T14:43:42.359Z,37.60
2018-03-01T14:46:10.752Z,37.50
2018-03-01T14:48:39.137Z,37.07
2018-03-01T14:51:07.686Z,38.23
2018-03-01T14:53:36.163Z,37.65
2018-03-01T14:56:04.528Z,37.08
2018-03-01T14:58:32.966Z,36.99
2018-03-01T15:01:01.348Z,37.65
2018-03-01T15:03:29.732Z,37.62
2018-03-01T15:05:58.158Z,37.90
2018-03-01T15:08:26.562Z,37.56
2018-03-01T15:10:55.012Z,37.72
2018-03-01T15:13:23.400Z,37.76
2018-03-01T15:15:51.802Z,38.05
2018-03-01T15:18:20.176Z,38.65
2018-03-01T15:20:48.558Z,38.76
2018-03-01T15:23:16.988Z,38.66
2018-03-01T15:25:46.202Z,38.39
2018-03-01T15:28:14.586Z,38.60
2018-03-01T15:30:43.141Z,39.17
2018-03-01T15:33:15.485Z,39.44
2018-03-01T15:35:43.866Z,39.64
2018-03-01T15:38:13.088Z,39.81
2018-03-01T15:40:42.240Z,39.92
2018-03-01T15:43:10.687Z,40.25
2018-03-01T15:45:39.114Z,40.62
2018-03-01T15:48:07.497Z,40.83
2018-03-01T15:50:35.883Z,40.95
2018-03-01T15:53:05.094Z,41.02
2018-03-01T15:55:34.271Z,41.47
2018-03-01T15:58:02.699Z,41.80
2018-03-01T16:00:31.079Z,42.00
2018-03-01T16:02:59.567Z,42.43
2018-03-01T16:05:27.971Z,42.62
2018-03-01T16:07:56.353Z,42.85
2018-03-01T16:10:24.718Z,43.13
2018-03-01T16:12:53.127Z,43.18
2018-03-01T16:15:21.526Z,43.66
2018-03-01T16:17:50.783Z,43.80
2018-03-01T16:20:19.159Z,44.12
2018-03-01T16:22:47.603Z,44.54
2018-03-01T16:25:16.044Z,44.42
2018-03-01T16:27:44.413Z,44.89
2018-03-01T16:30:12.827Z,45.05
2018-03-01T16:32:41.984Z,45.39
2018-03-01T16:35:10.358Z,45.68
2018-03-01T16:37:38.769Z,45.93
2018-03-01T16:40:08.058Z,46.31
2018-03-01T16:42:37.220Z,46.59
2018-03-01T16:45:05.657Z,47.03
2018-03-01T16:47:34.910Z,47.17
2018-03-01T16:50:03.333Z,47.57
2018-03-01T16:52:31.737Z,47.85
2018-03-01T16:55:00.241Z,47.97
2018-03-01T16:57:28.643Z,48.07
2018-03-01T16:59:57.089Z,48.43
2018-03-01T17:02:25.490Z,48.62
2018-03-01T17:04:54.021Z,48.55
2018-03-01T17:07:22.468Z,48.72
2018-03-01T17:09:50.864Z,48.91
2018-03-01T17:12:20.098Z,49.35
2018-03-01T17:14:48.502Z,49.45
2018-03-01T17:17:16.955Z,49.77
2018-03-01T17:19:45.336Z,49.89
2018-03-01T17:22:13.722Z,50.19
2018-03-01T17:24:42.139Z,50.64
2018-03-01T17:27:10.642Z,50.69
2018-03-01T17:29:39.912Z,51.01
2018-03-01T17:32:08.315Z,51.16
2018-03-01T17:34:37.482Z,51.28
2018-03-01T17:37:05.878Z,51.58
2018-03-01T17:39:34.319Z,51.75
2018-03-01T17:42:02.748Z,52.04
2018-03-01T17:44:31.996Z,52.32
2018-03-01T17:47:00.417Z,52.44
2018-03-01T17:49:29.593Z,52.54
2018-03-01T17:51:58.031Z,52.63
2018-03-01T17:54:26.434Z,52.80
2018-03-01T17:56:54.824Z,53.02
2018-03-01T17:59:23.236Z,53.32
2018-03-01T18:01:51.654Z,53.53
2018-03-01T18:04:20.047Z,53.83
2018-03-01T18:06:48.440Z,53.73
2018-03-01T18:09:16.850Z,53.97
2018-03-01T18:11:45.246Z,54.16
2018-03-01T18:14:14.400Z,54.34
2018-03-01T18:16:42.796Z,54.31
2018-03-01T18:19:11.208Z,54.50
2018-03-01T18:21:39.613Z,54.68
2018-03-01T18:24:08.042Z,54.88
2018-03-01T18:26:37.208Z,55.08
2018-03-01T18:29:05.594Z,55.12
2018-03-01T18:31:34.030Z,55.35
2018-03-01T18:34:02.429Z,55.34
2018-03-01T18:36:30.828Z,55.52
2018-03-01T18:38:59.241Z,55.55
2018-03-01T18:41:28.429Z,55.87
2018-03-01T18:43:56.856Z,55.98
2018-03-01T18:46:25.238Z,56.01
2018-03-01T18:48:53.636Z,56.20
2018-03-01T18:51:22.105Z,56.37
2018-03-01T18:53:50.506Z,56.38
2018-03-01T18:56:18.894Z,56.57
2018-03-01T18:58:47.298Z,56.85
2018-03-01T19:01:16.466Z,56.94
2018-03-01T19:03:44.845Z,57.18
2018-03-01T19:06:14.021Z,57.17
2018-03-01T19:08:42.486Z,57.36
2018-03-01T19:11:11.026Z,57.38
2018-03-01T19:13:40.943Z,57.35
2018-03-01T19:16:09.703Z,57.69
2018-03-01T19:18:38.100Z,57.80
2018-03-01T19:21:07.289Z,57.98
2018-03-01T19:23:35.667Z,58.13
2018-03-01T19:26:04.846Z,58.08
2018-03-01T19:28:33.234Z,58.20
2018-03-01T19:31:01.642Z,58.46
2018-03-01T19:33:30.788Z,58.59
2018-03-01T19:35:59.193Z,58.54
2018-03-01T19:38:27.574Z,58.62
2018-03-01T19:40:55.991Z,58.84
2018-03-01T19:43:24.383Z,58.94
2018-03-01T19:45:52.767Z,59.02
2018-03-01T19:48:21.190Z,58.94
2018-03-01T19:50:49.567Z,59.11
2018-03-01T19:53:17.946Z,59.31
2018-03-01T19:55:46.352Z,59.50
2018-03-01T19:58:15.495Z,59.57
2018-03-01T20:00:43.878Z,59.65
2018-03-01T20:03:12.326Z,59.62
2018-03-01T20:05:40.732Z,59.75
2018-03-01T20:08:09.149Z,59.77
2018-03-01T20:10:38.488Z,59.91
2018-03-01T20:13:06.865Z,60.01
2018-03-01T20:15:35.274Z,60.09
2018-03-01T20:18:03.834Z,60.41
2018-03-01T20:20:32.457Z,60.45
2018-03-01T20:23:00.879Z,60.37
2018-03-01T20:25:29.402Z,60.49
2018-03-01T20:27:57.786Z,60.65
2018-03-01T20:30:26.205Z,60.72
2018-03-01T20:32:55.356Z,60.78
2018-03-01T20:35:23.823Z,60.82
2018-03-01T20:37:52.233Z,61.07
2018-03-01T20:40:20.659Z,60.91
2018-03-01T20:42:49.056Z,61.08
2018-03-01T20:45:17.461Z,61.25
2018-03-01T20:47:45.882Z,61.45
2018-03-01T20:50:15.058Z,61.41
2018-03-01T20:52:43.451Z,61.29
2018-03-01T20:55:12.690Z,61.48
2018-03-01T20:57:41.060Z,61.74
2018-03-01T21:00:09.462Z,61.75
2018-03-01T21:02:37.854Z,61.70
2018-03-01T21:05:06.252Z,61.75
2018-03-01T21:07:34.670Z,61.95
2018-03-01T21:10:03.064Z,62.07
2018-03-01T21:12:31.469Z,62.13
2018-03-01T21:14:59.877Z,62.11
2018-03-01T21:17:29.114Z,62.36
2018-03-01T21:19:57.626Z,62.37
2018-03-01T21:22:26.062Z,62.54
2018-03-01T21:24:54.852Z,62.58
2018-03-01T21:27:23.254Z,62.56
2018-03-01T21:29:51.658Z,62.56
2018-03-01T21:32:20.205Z,62.58
2018-03-01T21:34:48.629Z,62.92
2018-03-01T21:37:17.067Z,62.89
2018-03-01T21:39:45.481Z,62.93
2018-03-01T21:42:13.926Z,63.17
2018-03-01T21:44:42.313Z,63.24
2018-03-01T21:47:10.720Z,63.34
2018-03-01T21:49:39.139Z,63.31
2018-03-01T21:52:07.563Z,63.51
2018-03-01T21:54:35.968Z,63.52
2018-03-01T21:57:05.100Z,63.68
2018-03-01T21:59:33.851Z,63.70
2018-03-01T22:02:02.290Z,63.71
2018-03-01T22:04:30.692Z,63.85
2018-03-01T22:06:59.345Z,63.78
2018-03-01T22:09:27.776Z,63.90
2018-03-01T22:11:56.166Z,63.90
2018-03-01T22:14:25.341Z,64.12
2018-03-01T22:16:54.517Z,64.07
2018-03-01T22:19:23.601Z,64.21
2018-03-01T22:21:52.053Z,64.26
2018-03-01T22:24:20.415Z,64.30
2018-03-01T22:26:49.587Z,64.43
2018-03-01T22:29:17.961Z,64.64
2018-03-01T22:31:46.386Z,64.62
2018-03-01T22:34:14.974Z,64.71
2018-03-01T22:36:43.618Z,64.73
2018-03-01T22:39:12.912Z,64.72
2018-03-01T22:41:41.328Z,64.72
2018-03-01T22:44:09.777Z,64.86
2018-03-01T22:46:38.988Z,65.11
2018-03-01T22:49:08.488Z,65.20
2018-03-01T22:51:37.319Z,65.22
2018-03-01T22:54:05.714Z,65.26
2018-03-01T22:56:34.346Z,65.25
2018-03-01T22:59:03.518Z,65.33
2018-03-01T23:01:31.918Z,65.48
2018-03-01T23:04:01.291Z,65.59
2018-03-01T23:06:31.083Z,65.70
2018-03-01T23:08:59.521Z,65.77
2018-03-01T23:11:27.977Z,65.73
2018-03-01T23:13:56.779Z,65.83
2018-03-01T23:16:25.941Z,65.91
2018-03-01T23:18:54.346Z,65.96
2018-03-01T23:21:22.725Z,66.03
2018-03-01T23:23:51.894Z,66.09
2018-03-01T23:26:20.289Z,66.32
2018-03-01T23:28:48.685Z,66.25
2018-03-01T23:31:17.930Z,66.38
2018-03-01T23:33:46.415Z,66.51
2018-03-01T23:36:14.812Z,66.67
2018-03-01T23:38:43.230Z,66.75
2018-03-01T23:41:12.425Z,66.80
2018-03-01T23:43:41.599Z,66.90
2018-03-01T23:46:10.018Z,67.13
2018-03-01T23:48:38.430Z,67.21
2018-03-01T23:51:06.865Z,67.26
2018-03-01T23:53:36.104Z,67.30
2018-03-01T23:56:04.478Z,67.44
2018-03-01T23:58:32.881Z,67.41
